Time;durP1;ratioP1;P1;durP2;ratioP2;P2;SDS_P1;SDS_P2;PMS_P1;PMS_P2;Temp;Humidity;BMP_temperature;BMP_pressure;BME280_temperature;BME280_humidity;BME280_pressure;Samples;Min_cycle;Max_cycle;Signal;HPM_P1;HPM_P2
2022/01/11 00:01:17;;;;;;;20.33;12.00;;;;;;;;;;5076398;28;20515;-51
2022/01/11 00:03:43;;;;;;;16.90;10.53;;;;;;;;;;5076490;28;20522;-56
2022/01/11 00:06:31;;;;;;;18.10;10.13;;;;;;;;;;5076601;28;20430;-55
2022/01/11 00:09:07;;;;;;;16.00;10.80;;;;;;;;;;5076274;28;20404;-51
2022/01/11 00:11:33;;;;;;;14.57;10.50;;;;;;;;;;5076107;28;20446;-52
2022/01/11 00:13:59;;;;;;;17.30;10.23;;;;;;;;;;5076288;28;20918;-54
2022/01/11 00:16:25;;;;;;;17.13;10.73;;;;;;;;;;5074891;28;20410;-51
2022/01/11 00:18:51;;;;;;;18.67;11.23;;;;;;;;;;5076088;28;20887;-51
2022/01/11 00:21:17;;;;;;;18.47;11.10;;;;;;;;;;5075745;28;20474;-51
2022/01/11 00:26:09;;;;;;;16.07;10.37;;;;;;;;;;5076145;28;20494;-54
2022/01/11 00:28:35;;;;;;;14.63;9.50;;;;;;;;;;5075828;28;20411;-52
2022/01/11 00:31:05;;;;;;;16.13;10.90;;;;;;;;;;5075836;28;20520;-52
2022/01/11 00:33:37;;;;;;;16.93;11.10;;;;;;;;;;5075759;28;20877;-51
2022/01/11 00:36:06;;;;;;;15.80;10.90;;;;;;;;;;5075904;28;20406;-52
2022/01/11 00:38:39;;;;;;;14.90;9.90;;;;;;;;;;5074357;28;20407;-54
2022/01/11 00:41:06;;;;;;;19.70;10.80;;;;;;;;;;5075515;28;20425;-58
2022/01/11 00:43:32;;;;;;;20.83;11.60;;;;;;;;;;5075527;28;20423;-51
2022/01/11 00:45:58;;;;;;;17.30;10.40;;;;;;;;;;5075491;28;20407;-51
2022/01/11 00:48:24;;;;;;;18.70;11.80;;;;;;;;;;5075497;28;20468;-54
2022/01/11 00:50:51;;;;;;;17.20;10.87;;;;;;;;;;5075565;28;20957;-53
2022/01/11 00:53:18;;;;;;;21.87;11.50;;;;;;;;;;5074163;28;20934;-55
2022/01/11 00:55:44;;;;;;;21.80;12.27;;;;;;;;;;5075389;28;20887;-52
2022/01/11 00:58:10;;;;;;;17.90;11.53;;;;;;;;;;5075544;28;20767;-61
2022/01/11 01:00:38;;;;;;;21.90;12.60;;;;;;;;;;5075343;28;20807;-52
2022/01/11 01:03:05;;;;;;;22.90;12.33;;;;;;;;;;5073917;28;20478;-56
2022/01/11 01:05:31;;;;;;;22.40;11.23;;;;;;;;;;5074972;28;20415;-55
2022/01/11 01:07:57;;;;;;;19.10;12.53;;;;;;;;;;5074351;28;20938;-57
2022/01/11 01:10:29;;;;;;;24.43;13.77;;;;;;;;;;5075459;28;20449;-53
2022/01/11 01:12:55;;;;;;;21.83;12.67;;;;;;;;;;5075338;28;20918;-53
2022/01/11 01:15:21;;;;;;;21.20;12.90;;;;;;;;;;5075043;28;20406;-55
2022/01/11 01:17:47;;;;;;;21.80;11.90;;;;;;;;;;5075178;28;20461;-54
2022/01/11 01:20:14;;;;;;;19.93;12.30;;;;;;;;;;5074904;28;20439;-52
2022/01/11 01:22:40;;;;;;;20.23;12.80;;;;;;;;;;5075001;28;20967;-52
2022/01/11 01:25:06;;;;;;;23.97;12.47;;;;;;;;;;5074920;28;20407;-58
2022/01/11 01:27:32;;;;;;;20.27;12.47;;;;;;;;;;5074890;28;20504;-52
2022/01/11 01:29:58;;;;;;;21.83;13.33;;;;;;;;;;5074867;28;20404;-55
2022/01/11 01:32:24;;;;;;;20.30;12.30;;;;;;;;;;5074723;28;20413;-57
2022/01/11 01:34:50;;;;;;;19.70;12.10;;;;;;;;;;5074768;28;20586;-52
2022/01/11 01:37:17;;;;;;;19.60;12.07;;;;;;;;;;5074651;28;20518;-54
2022/01/11 01:39:43;;;;;;;23.87;11.97;;;;;;;;;;5074754;28;20497;-51
2022/01/11 01:42:11;;;;;;;19.93;11.60;;;;;;;;;;5074663;28;20523;-51
2022/01/11 01:44:40;;;;;;;21.97;12.10;;;;;;;;;;5074795;28;20414;-51
2022/01/11 01:47:06;;;;;;;19.90;11.50;;;;;;;;;;5074474;28;20411;-52
2022/01/11 01:49:34;;;;;;;24.00;12.67;;;;;;;;;;5074402;28;20502;-53
2022/01/11 01:52:00;;;;;;;20.27;12.50;;;;;;;;;;5074513;28;20813;-54
2022/01/11 01:54:27;;;;;;;27.90;12.87;;;;;;;;;;5074420;28;20411;-52
2022/01/11 01:56:53;;;;;;;23.13;12.90;;;;;;;;;;5074245;28;20434;-54
2022/01/11 01:59:19;;;;;;;25.43;13.47;;;;;;;;;;5074405;28;20854;-51
2022/01/11 02:01:47;;;;;;;21.37;11.83;;;;;;;;;;5074092;28;20469;-50
2022/01/11 02:04:15;;;;;;;22.30;12.30;;;;;;;;;;5073999;28;20490;-51
2022/01/11 02:06:41;;;;;;;22.67;12.97;;;;;;;;;;5074259;28;20403;-51
2022/01/11 02:09:07;;;;;;;21.83;12.60;;;;;;;;;;5073987;28;20402;-52
2022/01/11 02:11:33;;;;;;;23.03;13.00;;;;;;;;;;5074036;28;20831;-52
2022/01/11 02:13:59;;;;;;;24.50;12.90;;;;;;;;;;5074277;28;20755;-52
2022/01/11 02:16:26;;;;;;;24.07;12.63;;;;;;;;;;5073864;28;20406;-54
2022/01/11 02:18:53;;;;;;;24.10;13.73;;;;;;;;;;5073831;28;20418;-53
2022/01/11 02:21:19;;;;;;;23.90;13.27;;;;;;;;;;5073500;28;20454;-52
2022/01/11 02:23:45;;;;;;;29.07;13.20;;;;;;;;;;5073649;28;20501;-52
2022/01/11 02:26:11;;;;;;;24.87;14.17;;;;;;;;;;5073832;28;20414;-53
2022/01/11 02:28:37;;;;;;;29.93;13.53;;;;;;;;;;5073658;28;20795;-54
2022/01/11 02:31:07;;;;;;;23.40;13.00;;;;;;;;;;5073871;28;20773;-52
2022/01/11 02:33:38;;;;;;;25.43;13.53;;;;;;;;;;5073470;28;20518;-52
2022/01/11 02:36:08;;;;;;;26.57;13.43;;;;;;;;;;5073484;28;20414;-53
2022/01/11 02:38:34;;;;;;;29.97;14.97;;;;;;;;;;5072325;28;20411;-53
2022/01/11 02:41:00;;;;;;;27.00;13.90;;;;;;;;;;5073470;28;20410;-54
2022/01/11 02:43:26;;;;;;;27.30;13.23;;;;;;;;;;5073275;28;20985;-51
2022/01/11 02:45:52;;;;;;;24.80;13.00;;;;;;;;;;5073349;28;20827;-51
2022/01/11 02:48:18;;;;;;;26.00;13.33;;;;;;;;;;5073309;28;20983;-53
2022/01/11 02:50:46;;;;;;;32.00;13.87;;;;;;;;;;5073216;28;20426;-52
2022/01/11 02:53:12;;;;;;;25.00;13.37;;;;;;;;;;5073569;28;20434;-51
2022/01/11 02:55:40;;;;;;;29.67;14.10;;;;;;;;;;5073362;28;20407;-52
2022/01/11 02:58:06;;;;;;;25.50;12.77;;;;;;;;;;5073257;28;20453;-53
2022/01/11 03:00:32;;;;;;;26.50;14.40;;;;;;;;;;5073269;28;20410;-53
2022/01/11 03:03:08;;;;;;;27.70;14.37;;;;;;;;;;5072890;28;20535;-52
2022/01/11 03:05:34;;;;;;;30.90;14.57;;;;;;;;;;5072923;28;20394;-56
2022/01/11 03:08:00;;;;;;;34.43;14.77;;;;;;;;;;5073254;28;20413;-53
2022/01/11 03:10:32;;;;;;;27.53;14.03;;;;;;;;;;5073058;28;20413;-55
2022/01/11 03:13:01;;;;;;;24.33;13.63;;;;;;;;;;5072896;28;20411;-54
2022/01/11 03:15:27;;;;;;;28.63;14.40;;;;;;;;;;5071520;28;20423;-53
2022/01/11 03:17:53;;;;;;;31.20;15.70;;;;;;;;;;5072735;28;20475;-53
2022/01/11 03:20:19;;;;;;;34.00;15.67;;;;;;;;;;5072752;28;20458;-51
2022/01/11 03:22:45;;;;;;;28.30;14.90;;;;;;;;;;5072734;28;20470;-52
2022/01/11 03:25:12;;;;;;;34.87;16.10;;;;;;;;;;5072886;28;20917;-56
2022/01/11 03:27:38;;;;;;;40.07;15.87;;;;;;;;;;5072481;28;20453;-53
2022/01/11 03:30:05;;;;;;;44.43;18.93;;;;;;;;;;5070851;28;20407;-52
2022/01/11 03:32:31;;;;;;;46.50;19.80;;;;;;;;;;5072664;28;20410;-53
2022/01/11 03:34:57;;;;;;;56.27;23.33;;;;;;;;;;5072495;28;20407;-52
2022/01/11 03:37:23;;;;;;;53.63;24.00;;;;;;;;;;5071384;28;20426;-53
2022/01/11 03:39:49;;;;;;;58.80;25.20;;;;;;;;;;5072604;28;20531;-53
2022/01/11 03:42:15;;;;;;;66.87;25.83;;;;;;;;;;5072506;28;20575;-52
2022/01/11 03:44:41;;;;;;;68.47;26.97;;;;;;;;;;5072486;28;20414;-51
2022/01/11 03:47:07;;;;;;;71.07;26.13;;;;;;;;;;5071227;28;20426;-51
2022/01/11 03:49:34;;;;;;;72.57;28.73;;;;;;;;;;5072481;28;20620;-52
2022/01/11 03:52:00;;;;;;;76.67;29.00;;;;;;;;;;5071689;28;20835;-52
2022/01/11 03:54:29;;;;;;;76.27;28.67;;;;;;;;;;5072437;28;20810;-52
2022/01/11 03:56:56;;;;;;;83.50;29.30;;;;;;;;;;5072478;28;20741;-52
2022/01/11 03:59:22;;;;;;;90.63;31.53;;;;;;;;;;5072484;28;20767;-51
2022/01/11 04:01:51;;;;;;;92.63;30.37;;;;;;;;;;5072439;28;20540;-52
2022/01/11 04:04:17;;;;;;;93.33;32.30;;;;;;;;;;5072451;28;20783;-51
2022/01/11 04:06:43;;;;;;;89.13;30.40;;;;;;;;;;5072366;28;20493;-52
2022/01/11 04:09:11;;;;;;;91.60;30.33;;;;;;;;;;5072440;28;20399;-52
2022/01/11 04:11:37;;;;;;;75.83;27.27;;;;;;;;;;5072240;28;20407;-52
2022/01/11 04:14:03;;;;;;;75.40;26.60;;;;;;;;;;5072216;28;20414;-53
2022/01/11 04:16:29;;;;;;;69.40;25.80;;;;;;;;;;5072224;28;20922;-51
2022/01/11 04:18:55;;;;;;;64.40;25.40;;;;;;;;;;5072234;28;20446;-52
2022/01/11 04:21:21;;;;;;;73.23;26.67;;;;;;;;;;5071837;28;20554;-53
2022/01/11 04:23:47;;;;;;;60.60;24.43;;;;;;;;;;5072007;28;20433;-57
2022/01/11 04:26:13;;;;;;;63.13;26.20;;;;;;;;;;5072306;28;20407;-53
2022/01/11 04:28:39;;;;;;;68.67;26.50;;;;;;;;;;5072243;28;20418;-53
2022/01/11 04:31:05;;;;;;;67.10;26.87;;;;;;;;;;5072058;28;20440;-51
2022/01/11 04:33:32;;;;;;;70.00;27.30;;;;;;;;;;5071934;28;20411;-53
2022/01/11 04:35:59;;;;;;;67.67;27.43;;;;;;;;;;5071993;28;20411;-52
2022/01/11 04:38:26;;;;;;;76.20;30.03;;;;;;;;;;5071958;28;20418;-51
2022/01/11 04:40:53;;;;;;;76.57;30.23;;;;;;;;;;5073311;28;20460;-53
2022/01/11 04:43:19;;;;;;;76.07;28.73;;;;;;;;;;5075790;28;20819;-51
2022/01/11 04:45:47;;;;;;;80.63;30.10;;;;;;;;;;5075773;28;20406;-53
2022/01/11 04:48:14;;;;;;;83.27;28.60;;;;;;;;;;5074400;28;20423;-52
2022/01/11 04:50:40;;;;;;;70.33;26.80;;;;;;;;;;5075649;28;20407;-53
2022/01/11 04:53:06;;;;;;;75.67;28.70;;;;;;;;;;5075519;28;20410;-52
2022/01/11 04:55:32;;;;;;;66.67;28.93;;;;;;;;;;5075353;28;20449;-52
2022/01/11 04:57:58;;;;;;;65.17;27.43;;;;;;;;;;5075354;28;20827;-53
2022/01/11 05:00:25;;;;;;;65.90;27.47;;;;;;;;;;5075531;28;20445;-51
2022/01/11 05:02:51;;;;;;;69.67;28.97;;;;;;;;;;5075061;28;20470;-52
2022/01/11 05:05:17;;;;;;;66.47;27.60;;;;;;;;;;5075462;28;20415;-51
2022/01/11 05:07:44;;;;;;;66.60;27.30;;;;;;;;;;5075515;28;20475;-51
2022/01/11 05:10:10;;;;;;;68.67;28.20;;;;;;;;;;5075234;28;20413;-52
2022/01/11 05:12:38;;;;;;;71.10;29.07;;;;;;;;;;5075151;28;20425;-50
2022/01/11 05:15:05;;;;;;;63.63;27.47;;;;;;;;;;5073789;28;20406;-55
2022/01/11 05:17:31;;;;;;;70.47;26.80;;;;;;;;;;5075361;28;20415;-53
2022/01/11 05:19:57;;;;;;;70.07;27.63;;;;;;;;;;5074602;28;20444;-52
2022/01/11 05:22:23;;;;;;;67.00;26.30;;;;;;;;;;5074745;28;20484;-51
2022/01/11 05:24:49;;;;;;;71.20;27.77;;;;;;;;;;5074802;28;20415;-53
2022/01/11 05:27:15;;;;;;;60.80;25.77;;;;;;;;;;5073716;28;20414;-52
2022/01/11 05:29:41;;;;;;;69.33;27.13;;;;;;;;;;5074629;28;20415;-51
2022/01/11 05:32:07;;;;;;;61.00;26.63;;;;;;;;;;5074706;28;20483;-51
2022/01/11 05:34:33;;;;;;;63.60;25.47;;;;;;;;;;5074600;28;20423;-54
2022/01/11 05:36:59;;;;;;;63.40;25.63;;;;;;;;;;5073313;28;20414;-52
2022/01/11 05:39:25;;;;;;;57.43;24.60;;;;;;;;;;5073373;28;20411;-53
2022/01/11 05:41:51;;;;;;;66.60;27.00;;;;;;;;;;5073142;28;20466;-57
2022/01/11 05:44:17;;;;;;;60.80;25.00;;;;;;;;;;5074430;28;20410;-55
2022/01/11 05:46:43;;;;;;;73.53;27.63;;;;;;;;;;5074627;28;20414;-57
2022/01/11 05:49:10;;;;;;;70.50;28.00;;;;;;;;;;5074414;28;20834;-55
2022/01/11 05:51:36;;;;;;;80.67;31.77;;;;;;;;;;5074359;28;20417;-54
2022/01/11 05:54:02;;;;;;;78.00;30.97;;;;;;;;;;5073304;28;20406;-51
2022/01/11 05:56:28;;;;;;;80.23;31.20;;;;;;;;;;5074190;28;20464;-53
2022/01/11 05:58:54;;;;;;;80.90;30.43;;;;;;;;;;5074236;28;20945;-52
2022/01/11 06:01:21;;;;;;;83.23;32.13;;;;;;;;;;5073974;28;20446;-52
2022/01/11 06:03:47;;;;;;;88.43;34.43;;;;;;;;;;5074204;28;20446;-52
2022/01/11 06:06:13;;;;;;;99.87;37.13;;;;;;;;;;5073943;28;20456;-53
2022/01/11 06:08:39;;;;;;;96.50;36.73;;;;;;;;;;5073968;28;20506;-55
2022/01/11 06:11:06;;;;;;;114.97;40.67;;;;;;;;;;5073827;28;20430;-51
2022/01/11 06:13:32;;;;;;;105.67;37.83;;;;;;;;;;5073641;28;20501;-51
2022/01/11 06:15:58;;;;;;;102.70;38.80;;;;;;;;;;5073656;28;20418;-57
2022/01/11 06:18:24;;;;;;;104.20;37.90;;;;;;;;;;5073635;28;20410;-54
2022/01/11 06:20:50;;;;;;;117.27;39.80;;;;;;;;;;5073513;28;20497;-53
2022/01/11 06:23:16;;;;;;;110.70;39.50;;;;;;;;;;5072031;28;20481;-51
2022/01/11 06:25:42;;;;;;;116.60;41.70;;;;;;;;;;5073597;28;20403;-52
2022/01/11 06:28:08;;;;;;;113.83;41.07;;;;;;;;;;5073427;28;20407;-55
2022/01/11 06:30:34;;;;;;;124.03;43.50;;;;;;;;;;5073437;28;20899;-52
2022/01/11 06:33:00;;;;;;;125.67;42.80;;;;;;;;;;5073346;28;20621;-51
2022/01/11 06:35:27;;;;;;;111.03;41.90;;;;;;;;;;5071978;28;20430;-54
2022/01/11 06:37:54;;;;;;;110.40;41.40;;;;;;;;;;5073608;28;20446;-52
2022/01/11 06:40:20;;;;;;;122.90;41.30;;;;;;;;;;5073007;28;20395;-52
2022/01/11 06:42:47;;;;;;;117.00;40.53;;;;;;;;;;5073202;28;20541;-52
2022/01/11 06:45:14;;;;;;;111.17;39.10;;;;;;;;;;5073503;28;20406;-55
2022/01/11 06:47:40;;;;;;;110.83;38.60;;;;;;;;;;5073569;28;20421;-52
2022/01/11 06:50:06;;;;;;;95.03;36.27;;;;;;;;;;5072736;28;20407;-52
2022/01/11 06:52:32;;;;;;;108.50;38.37;;;;;;;;;;5072820;28;20414;-52
2022/01/11 06:54:58;;;;;;;100.07;37.40;;;;;;;;;;5072447;28;20475;-55
2022/01/11 06:57:24;;;;;;;99.20;36.30;;;;;;;;;;5072536;28;20410;-55
2022/01/11 06:59:50;;;;;;;101.87;34.70;;;;;;;;;;5072700;28;20415;-51
2022/01/11 07:02:16;;;;;;;97.40;34.20;;;;;;;;;;5072453;28;20489;-54
2022/01/11 07:04:42;;;;;;;100.87;36.20;;;;;;;;;;5072198;28;20407;-54
2022/01/11 07:07:08;;;;;;;93.70;34.90;;;;;;;;;;5072793;28;20517;-53
2022/01/11 07:09:35;;;;;;;95.47;35.13;;;;;;;;;;5072770;28;20492;-56
2022/01/11 07:12:01;;;;;;;98.47;33.67;;;;;;;;;;5072717;28;20410;-54
2022/01/11 07:14:27;;;;;;;94.50;34.67;;;;;;;;;;5072614;28;20418;-55
2022/01/11 07:16:53;;;;;;;97.67;34.63;;;;;;;;;;5072856;28;20752;-54
2022/01/11 07:19:20;;;;;;;98.00;35.70;;;;;;;;;;5072537;28;20403;-54
2022/01/11 07:21:46;;;;;;;95.17;34.90;;;;;;;;;;5072345;28;20946;-53
2022/01/11 07:24:13;;;;;;;104.67;37.33;;;;;;;;;;5072685;28;20447;-56
2022/01/11 07:26:39;;;;;;;98.90;36.07;;;;;;;;;;5071072;28;20772;-54
2022/01/11 07:29:05;;;;;;;103.43;37.30;;;;;;;;;;5072496;28;20410;-54
2022/01/11 07:31:32;;;;;;;89.43;35.73;;;;;;;;;;5072524;28;20901;-54
2022/01/11 07:33:58;;;;;;;89.60;33.40;;;;;;;;;;5072382;28;20498;-55
2022/01/11 07:36:24;;;;;;;101.00;36.00;;;;;;;;;;5072622;28;20787;-57
2022/01/11 07:38:53;;;;;;;98.13;36.10;;;;;;;;;;5072566;28;20459;-54
2022/01/11 07:41:19;;;;;;;94.17;37.17;;;;;;;;;;5072424;28;20407;-53
2022/01/11 07:43:45;;;;;;;99.23;36.43;;;;;;;;;;5071002;28;20923;-57
2022/01/11 07:46:11;;;;;;;96.53;36.60;;;;;;;;;;5072828;28;20402;-52
2022/01/11 07:48:37;;;;;;;100.53;36.67;;;;;;;;;;5072301;28;20402;-53
2022/01/11 07:51:03;;;;;;;103.20;36.77;;;;;;;;;;5072229;28;20410;-53
2022/01/11 07:53:29;;;;;;;96.07;36.27;;;;;;;;;;5072696;28;20767;-53
2022/01/11 07:55:56;;;;;;;100.97;37.67;;;;;;;;;;5072441;28;20501;-52
2022/01/11 07:58:22;;;;;;;104.20;35.97;;;;;;;;;;5072133;28;20494;-54
2022/01/11 08:00:48;;;;;;;91.10;36.37;;;;;;;;;;5072372;28;20434;-53
2022/01/11 08:03:14;;;;;;;93.03;35.90;;;;;;;;;;5072066;28;20535;-51
2022/01/11 08:05:40;;;;;;;96.23;36.60;;;;;;;;;;5072351;28;20827;-52
2022/01/11 08:08:06;;;;;;;105.27;36.57;;;;;;;;;;5072260;28;20439;-52
2022/01/11 08:10:33;;;;;;;95.53;36.07;;;;;;;;;;5072458;28;20407;-53
2022/01/11 08:13:02;;;;;;;89.43;36.50;;;;;;;;;;5072287;28;20756;-54
2022/01/11 08:15:28;;;;;;;94.20;35.77;;;;;;;;;;5072434;28;20443;-53
2022/01/11 08:17:54;;;;;;;101.03;37.37;;;;;;;;;;5075746;28;20421;-53
2022/01/11 08:20:20;;;;;;;90.93;36.83;;;;;;;;;;5075735;28;20825;-55
2022/01/11 08:22:48;;;;;;;99.20;34.63;;;;;;;;;;5075889;28;20497;-52
2022/01/11 08:25:14;;;;;;;91.73;37.10;;;;;;;;;;5076030;28;20418;-54
2022/01/11 08:27:40;;;;;;;96.73;37.97;;;;;;;;;;5076159;28;20422;-53
2022/01/11 08:30:06;;;;;;;93.67;37.23;;;;;;;;;;5075851;28;20410;-55
2022/01/11 08:32:33;;;;;;;101.13;37.90;;;;;;;;;;5075843;28;20511;-55
2022/01/11 08:34:59;;;;;;;91.47;36.60;;;;;;;;;;5074776;28;20914;-53
2022/01/11 08:37:25;;;;;;;96.57;37.00;;;;;;;;;;5075700;28;20930;-55
2022/01/11 08:39:51;;;;;;;91.23;34.80;;;;;;;;;;5074417;28;20503;-55
2022/01/11 08:42:17;;;;;;;84.23;34.90;;;;;;;;;;5074559;28;20567;-54
2022/01/11 08:44:45;;;;;;;94.77;37.70;;;;;;;;;;5074475;28;20410;-57
2022/01/11 08:47:12;;;;;;;94.90;37.40;;;;;;;;;;5075749;28;20891;-59
2022/01/11 08:49:38;;;;;;;96.83;35.60;;;;;;;;;;5075505;28;20417;-53
2022/01/11 08:52:04;;;;;;;84.07;34.13;;;;;;;;;;5075443;28;20497;-55
2022/01/11 08:54:30;;;;;;;91.97;35.47;;;;;;;;;;5075400;28;20410;-53
2022/01/11 08:56:56;;;;;;;90.80;35.50;;;;;;;;;;5075542;28;20426;-54
2022/01/11 08:59:25;;;;;;;86.50;35.70;;;;;;;;;;5075478;28;20780;-53
2022/01/11 09:01:52;;;;;;;90.10;34.47;;;;;;;;;;5075332;28;20938;-53
2022/01/11 09:04:18;;;;;;;84.63;34.70;;;;;;;;;;5075411;28;20414;-61
2022/01/11 09:06:44;;;;;;;85.37;34.60;;;;;;;;;;5075375;28;20422;-61
2022/01/11 09:09:11;;;;;;;87.43;36.60;;;;;;;;;;5075670;28;20485;-57
2022/01/11 09:11:37;;;;;;;85.20;34.87;;;;;;;;;;5075112;28;20468;-61
2022/01/11 09:14:03;;;;;;;93.90;35.80;;;;;;;;;;5075289;28;20483;-59
2022/01/11 09:16:29;;;;;;;88.90;34.00;;;;;;;;;;5075069;28;20426;-62
2022/01/11 09:18:55;;;;;;;92.67;36.00;;;;;;;;;;5075163;28;21009;-58
2022/01/11 09:21:22;;;;;;;79.37;33.77;;;;;;;;;;5073349;28;20466;-59
2022/01/11 09:23:48;;;;;;;80.57;33.00;;;;;;;;;;5074795;28;20423;-54
2022/01/11 09:26:14;;;;;;;75.30;31.47;;;;;;;;;;5074893;28;20414;-58
2022/01/11 09:28:40;;;;;;;82.17;34.00;;;;;;;;;;5074007;28;20449;-56
2022/01/11 09:31:06;;;;;;;78.30;31.97;;;;;;;;;;5074701;28;20411;-54
2022/01/11 09:33:32;;;;;;;89.23;34.20;;;;;;;;;;5074814;28;20823;-60
2022/01/11 09:35:59;;;;;;;77.80;31.60;;;;;;;;;;5074619;28;20402;-55
2022/01/11 09:38:25;;;;;;;83.47;33.30;;;;;;;;;;5074651;28;20422;-55
2022/01/11 09:40:52;;;;;;;75.60;31.10;;;;;;;;;;5074715;28;20472;-61
2022/01/11 09:43:21;;;;;;;80.63;31.87;;;;;;;;;;5074436;28;20470;-57
2022/01/11 09:45:47;;;;;;;80.97;32.93;;;;;;;;;;5074481;28;20407;-55
2022/01/11 09:48:13;;;;;;;82.13;33.90;;;;;;;;;;5074443;28;20407;-59
2022/01/11 09:50:39;;;;;;;87.20;34.27;;;;;;;;;;5074669;28;20411;-54
2022/01/11 09:53:05;;;;;;;77.53;34.13;;;;;;;;;;5074387;28;20779;-59
2022/01/11 09:55:31;;;;;;;83.33;34.70;;;;;;;;;;5074418;28;20414;-52
2022/01/11 09:57:57;;;;;;;89.37;35.20;;;;;;;;;;5074170;28;20415;-54
2022/01/11 10:00:23;;;;;;;88.20;35.07;;;;;;;;;;5074262;28;20445;-53
2022/01/11 10:02:49;;;;;;;83.53;33.90;;;;;;;;;;5074160;28;20501;-54
2022/01/11 10:05:15;;;;;;;81.87;33.97;;;;;;;;;;5074129;28;20410;-53
2022/01/11 10:07:42;;;;;;;82.87;32.70;;;;;;;;;;5074301;28;20423;-54
2022/01/11 10:10:27;;;;;;;70.63;31.50;;;;;;;;;;5073885;28;20429;-55
2022/01/11 10:12:54;;;;;;;77.20;32.80;;;;;;;;;;5073929;28;20418;-55
2022/01/11 10:15:34;;;;;;;78.97;33.27;;;;;;;;;;5074071;28;20745;-54
2022/01/11 10:18:01;;;;;;;73.90;31.03;;;;;;;;;;5073826;28;20406;-55
2022/01/11 10:20:27;;;;;;;85.20;32.70;;;;;;;;;;5073370;28;20937;-57
2022/01/11 10:22:57;;;;;;;80.73;32.93;;;;;;;;;;5073945;28;20485;-54
2022/01/11 10:25:23;;;;;;;80.47;34.33;;;;;;;;;;5073827;28;20519;-53
2022/01/11 10:27:57;;;;;;;79.30;33.37;;;;;;;;;;5073749;28;20406;-57
2022/01/11 10:30:25;;;;;;;78.57;33.53;;;;;;;;;;5073794;28;20407;-55
2022/01/11 10:32:51;;;;;;;89.83;35.40;;;;;;;;;;5072767;28;20855;-53
2022/01/11 10:35:21;;;;;;;83.90;33.53;;;;;;;;;;5073340;28;20407;-56
2022/01/11 10:37:52;;;;;;;84.53;34.43;;;;;;;;;;5073474;28;20411;-54
2022/01/11 10:40:41;;;;;;;84.27;33.63;;;;;;;;;;5073260;28;20395;-57
2022/01/11 10:43:09;;;;;;;103.93;37.70;;;;;;;;;;5067751;28;20478;-55
2022/01/11 10:45:36;;;;;;;99.73;36.43;;;;;;;;;;5073401;28;20446;-54
2022/01/11 10:48:07;;;;;;;91.80;36.63;;;;;;;;;;5073362;28;20514;-53
2022/01/11 10:50:54;;;;;;;94.57;36.93;;;;;;;;;;5073226;28;20420;-54
2022/01/11 10:53:24;;;;;;;96.40;37.30;;;;;;;;;;5071918;28;20407;-56
2022/01/11 10:55:55;;;;;;;96.10;36.83;;;;;;;;;;5072945;28;20899;-53
2022/01/11 10:58:22;;;;;;;92.80;37.43;;;;;;;;;;5072990;28;20402;-55
2022/01/11 11:00:55;;;;;;;93.23;38.17;;;;;;;;;;5073277;28;20406;-57
2022/01/11 11:03:22;;;;;;;98.50;39.73;;;;;;;;;;5072858;28;20466;-56
2022/01/11 11:05:49;;;;;;;91.87;37.07;;;;;;;;;;5071657;28;20406;-55
2022/01/11 11:08:15;;;;;;;94.73;36.60;;;;;;;;;;5072940;28;20418;-54
2022/01/11 11:10:44;;;;;;;91.83;36.87;;;;;;;;;;5072987;28;20438;-56
2022/01/11 11:13:16;;;;;;;89.93;36.40;;;;;;;;;;5072752;28;20853;-53
2022/01/11 11:15:42;;;;;;;99.90;36.40;;;;;;;;;;5072862;28;20895;-59
2022/01/11 11:18:21;;;;;;;84.20;36.33;;;;;;;;;;5072811;28;20422;-55
2022/01/11 11:20:47;;;;;;;87.93;35.20;;;;;;;;;;5072521;28;20545;-56
2022/01/11 11:23:15;;;;;;;93.80;36.07;;;;;;;;;;5073143;28;20483;-53
2022/01/11 11:25:40;;;;;;;89.00;36.90;;;;;;;;;;5071533;28;20787;-58
2022/01/11 11:28:07;;;;;;;88.07;35.83;;;;;;;;;;5072669;28;20472;-59
2022/01/11 11:30:33;;;;;;;86.17;35.47;;;;;;;;;;5072677;28;20451;-53
2022/01/11 11:32:59;;;;;;;91.70;36.73;;;;;;;;;;5072758;28;20476;-55
2022/01/11 11:35:25;;;;;;;86.27;35.47;;;;;;;;;;5072666;28;20411;-53
2022/01/11 11:37:59;;;;;;;88.37;35.37;;;;;;;;;;5071047;28;20434;-53
2022/01/11 11:40:27;;;;;;;96.43;35.47;;;;;;;;;;5072423;28;20399;-54
2022/01/11 11:42:55;;;;;;;84.67;33.30;;;;;;;;;;5072458;28;20472;-54
2022/01/11 11:45:24;;;;;;;82.77;35.77;;;;;;;;;;5072463;28;20957;-58
2022/01/11 11:47:50;;;;;;;85.47;35.07;;;;;;;;;;5072363;28;20418;-56
2022/01/11 11:50:17;;;;;;;76.33;31.43;;;;;;;;;;5073924;28;20398;-55
2022/01/11 11:52:45;;;;;;;82.97;33.00;;;;;;;;;;5079522;28;20931;-54
2022/01/11 11:55:25;;;;;;;79.70;31.37;;;;;;;;;;5079444;28;20405;-55
2022/01/11 11:57:53;;;;;;;80.60;32.27;;;;;;;;;;5078862;28;20424;-53
2022/01/11 12:00:23;;;;;;;73.67;29.73;;;;;;;;;;5079332;28;20493;-55
2022/01/11 12:02:51;;;;;;;76.03;30.30;;;;;;;;;;5078761;28;20469;-56
2022/01/11 12:05:36;;;;;;;78.00;32.00;;;;;;;;;;5079025;28;20923;-55
2022/01/11 12:08:21;;;;;;;85.13;33.33;;;;;;;;;;5079266;28;20767;-53
2022/01/11 12:10:49;;;;;;;75.00;30.47;;;;;;;;;;5078771;28;20452;-54
2022/01/11 12:13:33;;;;;;;84.00;33.10;;;;;;;;;;5078939;28;20492;-54
2022/01/11 12:15:59;;;;;;;80.73;32.40;;;;;;;;;;5079086;28;20410;-54
2022/01/11 12:18:41;;;;;;;87.80;32.57;;;;;;;;;;5078844;28;20404;-53
2022/01/11 12:21:06;;;;;;;82.73;32.43;;;;;;;;;;5078395;28;20473;-54
2022/01/11 12:23:36;;;;;;;73.10;31.37;;;;;;;;;;5077889;28;20958;-57
2022/01/11 12:26:16;;;;;;;69.97;32.27;;;;;;;;;;5078256;28;20894;-52
2022/01/11 12:28:43;;;;;;;74.73;30.70;;;;;;;;;;5078292;28;20394;-53
2022/01/11 12:31:28;;;;;;;80.40;32.03;;;;;;;;;;5078320;28;20395;-54
2022/01/11 12:33:55;;;;;;;80.20;30.17;;;;;;;;;;5078198;28;20728;-53
2022/01/11 12:36:21;;;;;;;71.20;29.07;;;;;;;;;;5078503;28;20532;-53
2022/01/11 12:39:06;;;;;;;72.87;29.80;;;;;;;;;;5077972;28;20422;-54
2022/01/11 12:41:34;;;;;;;71.97;30.03;;;;;;;;;;5078179;28;20442;-52
2022/01/11 12:44:28;;;;;;;67.93;30.03;;;;;;;;;;5077906;28;20496;-53
2022/01/11 12:46:54;;;;;;;76.57;31.07;;;;;;;;;;5077998;28;20865;-54
2022/01/11 12:49:21;;;;;;;74.30;31.17;;;;;;;;;;5078232;28;20767;-57
2022/01/11 12:51:56;;;;;;;76.63;31.03;;;;;;;;;;5076638;28;20415;-54
2022/01/11 12:54:30;;;;;;;87.33;33.63;;;;;;;;;;5078319;28;20429;-55
2022/01/11 12:56:58;;;;;;;76.30;32.50;;;;;;;;;;5077730;28;20461;-54
2022/01/11 12:59:26;;;;;;;71.70;31.90;;;;;;;;;;5077730;28;20395;-57
2022/01/11 13:02:07;;;;;;;87.57;34.27;;;;;;;;;;5076546;28;20540;-55
2022/01/11 13:05:10;;;;;;;90.30;34.50;;;;;;;;;;5073206;28;20483;-53
2022/01/11 13:07:38;;;;;;;88.70;33.90;;;;;;;;;;5032601;28;20547;-53
2022/01/11 13:10:04;;;;;;;90.80;34.70;;;;;;;;;;5066746;28;20418;-53
2022/01/11 13:12:32;;;;;;;97.07;35.53;;;;;;;;;;5074504;28;20513;-53
2022/01/11 13:15:07;;;;;;;80.77;32.80;;;;;;;;;;5074734;28;20555;-54
2022/01/11 13:17:46;;;;;;;85.13;32.70;;;;;;;;;;5074375;28;20406;-54
2022/01/11 13:20:13;;;;;;;75.10;31.30;;;;;;;;;;5074359;28;20946;-53
2022/01/11 13:22:53;;;;;;;81.47;32.07;;;;;;;;;;5074398;28;20458;-52
2022/01/11 13:25:33;;;;;;;81.23;31.73;;;;;;;;;;5074217;28;20411;-56
2022/01/11 13:27:59;;;;;;;76.40;29.30;;;;;;;;;;5074233;28;20456;-52
2022/01/11 13:30:36;;;;;;;72.33;29.60;;;;;;;;;;5074075;28;20426;-53
2022/01/11 13:33:02;;;;;;;61.43;25.70;;;;;;;;;;5074121;28;20421;-54
2022/01/11 13:35:28;;;;;;;63.13;26.13;;;;;;;;;;5074256;28;20407;-54
2022/01/11 13:37:54;;;;;;;63.63;25.97;;;;;;;;;;5074144;28;20399;-54
2022/01/11 13:40:25;;;;;;;62.27;26.10;;;;;;;;;;5073851;28;20410;-53
2022/01/11 13:43:00;;;;;;;71.77;27.87;;;;;;;;;;5056021;28;21005;-53
2022/01/11 13:45:36;;;;;;;62.90;27.10;;;;;;;;;;5073862;28;20434;-52
2022/01/11 13:48:14;;;;;;;57.40;25.23;;;;;;;;;;5073858;28;20444;-55
2022/01/11 13:51:06;;;;;;;68.20;26.33;;;;;;;;;;5073961;28;20452;-57
2022/01/11 13:53:37;;;;;;;63.80;26.80;;;;;;;;;;5071747;28;20422;-57
2022/01/11 13:56:07;;;;;;;63.83;25.40;;;;;;;;;;5073685;28;20827;-60
2022/01/11 13:58:35;;;;;;;53.37;24.10;;;;;;;;;;5073526;28;20536;-59
2022/01/11 14:01:01;;;;;;;51.63;23.80;;;;;;;;;;5072330;28;20423;-60
2022/01/11 14:03:30;;;;;;;55.20;25.30;;;;;;;;;;5073526;28;20484;-59
2022/01/11 14:05:56;;;;;;;69.03;25.53;;;;;;;;;;5073435;28;20403;-55
2022/01/11 14:08:32;;;;;;;58.40;24.50;;;;;;;;;;5073364;28;20438;-63
2022/01/11 14:11:07;;;;;;;54.93;24.60;;;;;;;;;;5072006;28;20594;-61
2022/01/11 14:13:33;;;;;;;74.57;28.57;;;;;;;;;;5071439;28;20413;-57
2022/01/11 14:15:59;;;;;;;73.93;28.90;;;;;;;;;;5072067;28;20419;-53
2022/01/11 14:18:27;;;;;;;72.13;28.93;;;;;;;;;;5073334;28;20759;-63
2022/01/11 14:21:07;;;;;;;70.57;28.63;;;;;;;;;;5073165;28;20469;-55
2022/01/11 14:23:34;;;;;;;72.07;28.97;;;;;;;;;;5073360;28;20465;-54